createdAt,value
2022-09-28T00:01:00.987Z,2.20
2022-09-28T00:03:29.363Z,2.10
2022-09-28T00:06:03.983Z,2.17
2022-09-28T00:08:32.086Z,1.93
2022-09-28T00:11:00.038Z,2.00
2022-09-28T00:13:28.227Z,2.20
2022-09-28T00:16:03.796Z,1.80
2022-09-28T00:18:32.259Z,2.20
2022-09-28T00:21:06.616Z,1.93
2022-09-28T00:23:55.614Z,2.00
2022-09-28T00:26:23.802Z,1.60
2022-09-28T00:28:52.849Z,1.80
2022-09-28T00:31:20.751Z,2.00
2022-09-28T00:33:51.832Z,1.77
2022-09-28T00:36:21.185Z,1.87
2022-09-28T00:38:48.966Z,1.80
2022-09-28T00:41:19.478Z,2.33
2022-09-28T00:43:47.553Z,1.57
2022-09-28T00:46:19.342Z,2.27
2022-09-28T00:48:53.189Z,1.80
2022-09-28T00:51:26.926Z,1.80
2022-09-28T00:53:56.055Z,2.10
2022-09-28T00:56:28.131Z,1.73
2022-09-28T00:58:56.250Z,1.67
2022-09-28T01:01:24.179Z,1.90
2022-09-28T01:03:52.072Z,1.83
2022-09-28T01:06:22.817Z,2.07
2022-09-28T01:08:56.059Z,1.80
2022-09-28T01:11:24.415Z,1.80
2022-09-28T01:13:57.534Z,1.80
2022-09-28T01:16:33.724Z,1.47
2022-09-28T01:19:26.790Z,1.53
2022-09-28T01:22:04.221Z,1.80
2022-09-28T01:24:43.012Z,1.63
2022-09-28T01:27:18.985Z,1.60
2022-09-28T01:29:50.726Z,1.70
2022-09-28T01:32:35.816Z,2.30
2022-09-28T01:35:08.984Z,1.80
2022-09-28T01:37:42.601Z,1.80
2022-09-28T01:40:12.929Z,1.60
2022-09-28T01:42:44.895Z,2.07
2022-09-28T01:45:19.203Z,1.80
2022-09-28T01:47:49.100Z,1.50
2022-09-28T01:50:20.510Z,1.70
2022-09-28T01:52:51.746Z,1.60
2022-09-28T01:55:28.968Z,1.67
2022-09-28T01:58:04.294Z,2.53
2022-09-28T02:00:33.482Z,1.90
2022-09-28T02:03:06.820Z,2.20
2022-09-28T02:05:37.985Z,2.73
2022-09-28T02:08:10.360Z,2.27
2022-09-28T02:10:43.454Z,2.63
2022-09-28T02:13:17.361Z,2.80
2022-09-28T02:15:51.439Z,2.87
2022-09-28T02:18:19.966Z,2.87
2022-09-28T02:20:53.224Z,3.30
2022-09-28T02:23:24.391Z,3.40
2022-09-28T02:25:56.599Z,3.10
2022-09-28T02:28:25.812Z,3.50
2022-09-28T02:30:53.734Z,4.23
2022-09-28T02:33:28.016Z,3.57
2022-09-28T02:35:56.447Z,3.63
2022-09-28T02:38:24.383Z,3.63
2022-09-28T02:41:06.902Z,3.47
2022-09-28T02:43:45.204Z,3.43
2022-09-28T02:46:23.431Z,3.90
2022-09-28T02:49:21.531Z,3.67
2022-09-28T02:52:08.508Z,3.33
2022-09-28T02:54:56.547Z,3.40
2022-09-28T02:57:36.107Z,3.67
2022-09-28T03:00:10.263Z,3.60
2022-09-28T03:02:46.317Z,3.13
2022-09-28T03:05:19.268Z,2.97
2022-09-28T03:07:55.442Z,3.00
2022-09-28T03:10:29.440Z,2.70
2022-09-28T03:15:34.088Z,2.87
2022-09-28T03:18:01.871Z,2.50
2022-09-28T03:20:30.721Z,2.70
2022-09-28T03:26:19.593Z,2.30
2022-09-28T03:31:23.758Z,2.70
2022-09-28T03:33:52.877Z,2.07
2022-09-28T03:36:20.722Z,2.67
2022-09-28T03:38:48.514Z,2.43
2022-09-28T03:41:16.440Z,2.63
2022-09-28T03:43:44.283Z,2.30
2022-09-28T03:46:12.126Z,2.97
2022-09-28T03:48:41.566Z,2.30
2022-09-28T03:51:12.073Z,2.60
2022-09-28T03:53:40.325Z,2.30
2022-09-28T03:56:35.203Z,2.37
2022-09-28T03:59:04.280Z,2.07
2022-09-28T04:01:32.397Z,2.33
2022-09-28T04:04:00.503Z,2.10
2022-09-28T04:06:28.590Z,2.43
2022-09-28T04:08:56.386Z,2.10
2022-09-28T04:11:24.423Z,1.87
2022-09-28T04:13:53.531Z,2.23
2022-09-28T04:16:21.330Z,2.03
2022-09-28T04:18:49.381Z,1.80
2022-09-28T04:21:18.731Z,2.17
2022-09-28T04:23:47.185Z,2.03
2022-09-28T04:26:17.526Z,2.50
2022-09-28T04:29:06.502Z,2.00
2022-09-28T04:31:41.073Z,2.00
2022-09-28T04:34:09.345Z,2.20
2022-09-28T04:36:37.505Z,2.10
2022-09-28T04:39:06.049Z,1.93
2022-09-28T04:41:34.135Z,2.23
2022-09-28T04:46:36.007Z,1.83
2022-09-28T04:49:04.125Z,2.20
2022-09-28T04:51:32.546Z,2.03
2022-09-28T04:57:41.153Z,2.17
2022-09-28T05:00:10.579Z,1.80
2022-09-28T05:02:39.018Z,1.73
2022-09-28T05:05:07.802Z,1.70
2022-09-28T05:10:16.725Z,1.50
2022-09-28T05:12:44.603Z,1.70
2022-09-28T05:15:12.812Z,1.60
2022-09-28T05:17:40.660Z,1.50
2022-09-28T05:24:36.805Z,1.23
2022-09-28T05:27:05.080Z,1.80
2022-09-28T05:29:32.942Z,1.30
2022-09-28T05:32:02.198Z,1.60
2022-09-28T05:34:30.478Z,1.30
2022-09-28T05:36:58.561Z,1.20
2022-09-28T05:39:26.695Z,1.50
2022-09-28T05:41:57.785Z,1.20
2022-09-28T05:44:25.908Z,1.33
2022-09-28T05:46:54.666Z,1.00
2022-09-28T05:49:22.545Z,1.00
2022-09-28T05:51:50.515Z,1.20
2022-09-28T05:54:20.110Z,0.90
2022-09-28T05:59:30.310Z,1.10
2022-09-28T06:01:58.280Z,1.27
2022-09-28T06:04:26.352Z,1.50
2022-09-28T06:12:08.988Z,1.00
2022-09-28T06:14:37.123Z,0.90
2022-09-28T06:17:05.195Z,1.00
2022-09-28T06:19:33.393Z,0.80
2022-09-28T06:22:01.339Z,0.90
2022-09-28T06:25:51.447Z,1.33
2022-09-28T06:28:19.381Z,0.83
2022-09-28T06:30:48.211Z,0.90
2022-09-28T06:33:16.447Z,1.00
2022-09-28T06:35:44.459Z,0.83
2022-09-28T06:38:12.801Z,0.77
2022-09-28T06:40:40.831Z,0.90
2022-09-28T06:43:14.716Z,3.87
2022-09-28T06:45:43.777Z,1.03
2022-09-28T06:50:14.456Z,0.73
2022-09-28T06:52:42.464Z,0.87
2022-09-28T06:55:10.650Z,1.07
2022-09-28T06:57:38.652Z,0.97
2022-09-28T07:00:07.806Z,1.00
2022-09-28T07:04:50.381Z,1.00
2022-09-28T07:07:18.356Z,1.00
2022-09-28T07:09:50.343Z,1.10
2022-09-28T07:12:20.284Z,1.00
2022-09-28T07:14:50.164Z,0.90
2022-09-28T07:17:18.605Z,0.80
2022-09-28T07:22:40.529Z,1.20
2022-09-28T07:27:48.400Z,1.30
2022-09-28T07:30:16.954Z,1.10
2022-09-28T07:32:46.782Z,1.00
2022-09-28T07:38:01.504Z,0.97
2022-09-28T07:40:48.562Z,1.00
2022-09-28T07:43:24.777Z,0.80
2022-09-28T07:45:54.918Z,1.20
2022-09-28T07:48:23.418Z,1.10
2022-09-28T07:50:52.275Z,0.90
2022-09-28T07:53:20.762Z,1.00
2022-09-28T07:58:10.847Z,0.97
2022-09-28T08:04:06.489Z,1.60
2022-09-28T08:06:34.715Z,1.30
2022-09-28T08:09:02.899Z,1.20
2022-09-28T08:13:27.099Z,1.00
2022-09-28T08:16:34.277Z,1.20
2022-09-28T08:19:02.569Z,1.97
2022-09-28T08:23:40.078Z,1.00
2022-09-28T08:26:12.096Z,1.00
2022-09-28T08:33:21.140Z,0.83
2022-09-28T08:35:55.523Z,1.00
2022-09-28T08:38:23.784Z,0.60
2022-09-28T08:41:01.188Z,1.10
2022-09-28T08:43:55.007Z,1.30
2022-09-28T08:46:27.158Z,0.90
2022-09-28T08:52:00.686Z,0.90
2022-09-28T08:54:44.027Z,0.80
2022-09-28T08:59:52.322Z,0.77
2022-09-28T09:02:25.357Z,0.60
2022-09-28T09:04:53.998Z,0.53
2022-09-28T09:07:44.651Z,0.60
2022-09-28T09:10:30.111Z,0.50
2022-09-28T09:13:12.313Z,0.57
2022-09-28T09:15:48.744Z,0.50
2022-09-28T09:18:26.517Z,0.80
2022-09-28T09:20:58.303Z,0.45
2022-09-28T09:23:36.542Z,0.60
2022-09-28T09:26:15.115Z,0.40
2022-09-28T09:29:20.711Z,0.50
2022-09-28T09:32:05.187Z,0.60
2022-09-28T09:34:50.441Z,0.50
2022-09-28T09:37:41.889Z,0.50
2022-09-28T09:40:26.141Z,0.65
2022-09-28T09:43:07.375Z,0.20
2022-09-28T09:45:53.104Z,0.30
2022-09-28T09:48:32.148Z,0.40
2022-09-28T09:51:03.262Z,0.22
2022-09-28T09:53:38.507Z,0.30
2022-09-28T09:56:15.446Z,0.38
2022-09-28T09:58:49.232Z,0.45
2022-09-28T10:01:20.936Z,0.30
2022-09-28T10:03:51.967Z,0.20
2022-09-28T10:06:26.629Z,0.30
2022-09-28T10:09:02.912Z,0.20
2022-09-28T10:11:45.749Z,0.40
2022-09-28T10:14:21.448Z,0.30
2022-09-28T10:16:52.328Z,0.30
2022-09-28T10:19:22.871Z,0.20
2022-09-28T10:21:52.002Z,0.40
2022-09-28T10:24:30.579Z,0.45
2022-09-28T10:27:05.639Z,0.40
2022-09-28T10:29:44.365Z,0.50
2022-09-28T10:32:23.881Z,0.40
2022-09-28T10:34:52.395Z,0.50
2022-09-28T10:37:20.943Z,0.28
2022-09-28T10:39:51.637Z,0.30
2022-09-28T10:42:23.668Z,0.38
2022-09-28T10:44:57.833Z,0.57
2022-09-28T10:47:28.825Z,0.40
2022-09-28T10:49:57.538Z,0.10
2022-09-28T10:52:34.119Z,0.30
2022-09-28T10:55:03.087Z,0.43
2022-09-28T10:57:36.111Z,0.28
2022-09-28T11:00:06.498Z,0.28
2022-09-28T11:02:37.524Z,0.40
2022-09-28T11:05:08.279Z,0.40
2022-09-28T11:07:48.005Z,0.50
2022-09-28T11:10:23.303Z,0.55
2022-09-28T11:12:54.409Z,0.30
2022-09-28T11:15:25.478Z,0.20
2022-09-28T11:17:53.713Z,0.17
2022-09-28T11:20:31.637Z,0.25
2022-09-28T11:23:01.326Z,0.32
2022-09-28T11:25:31.294Z,0.50
2022-09-28T11:28:04.392Z,0.30
2022-09-28T11:30:38.389Z,0.30
2022-09-28T11:33:12.913Z,0.20
2022-09-28T11:35:48.041Z,0.30
2022-09-28T11:38:31.771Z,0.35
2022-09-28T11:41:12.204Z,0.30
2022-09-28T11:44:31.001Z,0.15
2022-09-28T11:47:27.758Z,0.20
2022-09-28T11:50:03.364Z,0.25
2022-09-28T11:52:36.334Z,0.30
2022-09-28T11:55:10.785Z,0.30
2022-09-28T11:57:41.894Z,0.20
2022-09-28T12:00:16.727Z,0.57
2022-09-28T12:02:50.181Z,0.40
2022-09-28T12:05:24.333Z,0.30
2022-09-28T12:07:55.874Z,0.30
2022-09-28T12:10:36.911Z,0.30
2022-09-28T12:13:10.736Z,0.20
2022-09-28T12:16:15.034Z,0.20
2022-09-28T12:18:43.223Z,0.20
2022-09-28T12:21:23.369Z,0.50
2022-09-28T12:23:52.452Z,0.20
2022-09-28T12:26:29.409Z,0.15
2022-09-28T12:29:00.898Z,0.30
2022-09-28T12:31:36.070Z,0.20
2022-09-28T12:34:04.305Z,0.30
2022-09-28T12:36:47.415Z,0.20
2022-09-28T12:39:56.460Z,0.30
2022-09-28T12:42:45.358Z,0.30
2022-09-28T12:45:30.976Z,0.40
2022-09-28T12:48:31.374Z,0.40
2022-09-28T12:51:10.703Z,0.30
2022-09-28T12:54:00.134Z,0.25
2022-09-28T12:56:34.835Z,0.40
2022-09-28T12:59:16.352Z,0.20
2022-09-28T13:02:02.607Z,0.68
2022-09-28T13:04:47.680Z,0.40
2022-09-28T13:07:24.148Z,0.57
2022-09-28T13:10:02.398Z,0.43
2022-09-28T13:12:43.994Z,0.30
2022-09-28T13:15:35.435Z,0.30
2022-09-28T13:18:15.867Z,0.30
2022-09-28T13:20:58.294Z,0.20
2022-09-28T13:23:31.063Z,0.20
2022-09-28T13:26:09.881Z,0.30
2022-09-28T13:28:38.976Z,0.20
2022-09-28T13:31:08.926Z,5.63
2022-09-28T13:33:39.495Z,1.90
2022-09-28T13:36:39.526Z,0.77
2022-09-28T13:39:36.016Z,0.50
2022-09-28T13:42:04.373Z,0.38
2022-09-28T13:44:54.268Z,0.52
2022-09-28T13:47:34.804Z,0.30
2022-09-28T13:50:18.804Z,0.60
2022-09-28T13:52:53.379Z,0.80
2022-09-28T13:55:32.946Z,0.68
2022-09-28T13:58:05.181Z,0.70
2022-09-28T14:00:39.184Z,0.60
2022-09-28T14:03:24.281Z,0.50
2022-09-28T14:06:22.002Z,0.40
2022-09-28T14:09:10.357Z,0.38
2022-09-28T14:11:44.407Z,0.38
2022-09-28T14:14:49.765Z,0.47
2022-09-28T14:17:55.547Z,0.90
2022-09-28T14:20:28.157Z,0.52
2022-09-28T14:23:29.326Z,0.63
2022-09-28T14:26:28.607Z,0.65
2022-09-28T14:29:10.557Z,0.75
2022-09-28T14:31:43.352Z,0.90
2022-09-28T14:34:27.848Z,0.60
2022-09-28T14:37:13.445Z,0.40
2022-09-28T14:40:03.702Z,0.73
2022-09-28T14:42:33.434Z,0.82
2022-09-28T14:45:36.257Z,0.50
2022-09-28T14:48:16.247Z,0.38
2022-09-28T14:50:47.112Z,0.70
2022-09-28T14:53:23.823Z,0.43
2022-09-28T14:55:55.380Z,0.35
2022-09-28T14:58:27.537Z,0.40
2022-09-28T15:01:01.041Z,0.30
2022-09-28T15:03:32.687Z,0.30
2022-09-28T15:06:01.502Z,0.30
2022-09-28T15:08:40.388Z,0.38
2022-09-28T15:11:14.876Z,0.40
2022-09-28T15:13:46.580Z,0.32
2022-09-28T15:16:16.497Z,0.30
2022-09-28T15:19:08.264Z,0.43
2022-09-28T15:21:37.989Z,0.50
2022-09-28T15:24:32.398Z,0.60
2022-09-28T15:27:00.767Z,0.40
2022-09-28T15:29:33.312Z,0.28
2022-09-28T15:32:01.531Z,0.40
2022-09-28T15:34:50.848Z,0.40
2022-09-28T15:37:24.014Z,1.77
2022-09-28T15:39:53.304Z,0.80
2022-09-28T15:42:22.782Z,0.40
2022-09-28T15:45:26.790Z,0.40
2022-09-28T15:48:27.135Z,0.50
2022-09-28T15:51:02.618Z,0.47
2022-09-28T15:53:31.288Z,0.70
2022-09-28T15:56:09.650Z,0.30
2022-09-28T15:58:38.926Z,0.22
2022-09-28T16:01:36.970Z,0.20
2022-09-28T16:04:38.314Z,0.22
2022-09-28T16:07:20.497Z,0.30
2022-09-28T16:09:56.713Z,1.00
2022-09-28T16:12:30.120Z,0.75
2022-09-28T16:14:58.514Z,0.70
2022-09-28T16:17:32.290Z,0.52
2022-09-28T16:20:00.962Z,0.73
2022-09-28T16:22:32.433Z,0.85
2022-09-28T16:25:02.014Z,1.02
2022-09-28T16:27:39.864Z,1.33
2022-09-28T16:30:24.428Z,0.70
2022-09-28T16:32:56.366Z,8.10
2022-09-28T16:35:32.660Z,4.40
2022-09-28T16:38:10.639Z,1.70
2022-09-28T16:40:41.827Z,1.30
2022-09-28T16:43:17.064Z,1.38
2022-09-28T16:45:45.217Z,1.00
2022-09-28T16:48:20.314Z,0.80
2022-09-28T16:50:48.693Z,0.65
2022-09-28T16:53:35.690Z,0.45
2022-09-28T16:56:04.936Z,0.82
2022-09-28T16:58:33.688Z,0.70
2022-09-28T17:01:02.054Z,1.10
2022-09-28T17:03:31.540Z,1.27
2022-09-28T17:05:59.775Z,1.10
2022-09-28T17:08:27.931Z,0.93
2022-09-28T17:13:46.222Z,1.93
2022-09-28T17:16:17.711Z,4.68
2022-09-28T17:18:48.325Z,4.53
2022-09-28T17:21:19.880Z,4.03
2022-09-28T17:23:49.551Z,2.67
2022-09-28T17:26:21.734Z,1.70
2022-09-28T17:28:49.942Z,0.80
2022-09-28T17:31:20.117Z,0.70
2022-09-28T17:33:49.349Z,0.70
2022-09-28T17:36:18.791Z,0.65
2022-09-28T17:38:48.243Z,1.20
2022-09-28T17:41:20.474Z,1.53
2022-09-28T17:43:49.206Z,1.20
2022-09-28T17:46:28.286Z,1.40
2022-09-28T17:48:59.579Z,1.57
2022-09-28T17:51:28.822Z,1.47
2022-09-28T17:53:57.090Z,2.40
2022-09-28T17:56:29.729Z,4.10
2022-09-28T17:59:01.186Z,4.67
2022-09-28T18:01:34.403Z,3.67
2022-09-28T18:04:05.644Z,2.10
2022-09-28T18:06:42.175Z,1.87
2022-09-28T18:09:13.293Z,1.40
2022-09-28T18:11:44.350Z,2.30
2022-09-28T18:14:12.644Z,2.93
2022-09-28T18:16:41.050Z,3.23
2022-09-28T18:19:10.309Z,2.87
2022-09-28T18:21:38.687Z,2.50
2022-09-28T18:24:06.848Z,2.57
2022-09-28T18:26:35.240Z,2.10
2022-09-28T18:29:03.509Z,2.27
2022-09-28T18:31:31.866Z,2.13
2022-09-28T18:34:01.074Z,1.83
2022-09-28T18:36:31.069Z,2.23
2022-09-28T18:39:01.448Z,2.63
2022-09-28T18:41:29.854Z,1.80
2022-09-28T18:44:00.663Z,1.80
2022-09-28T18:46:29.296Z,1.60
2022-09-28T18:48:57.825Z,1.67
2022-09-28T18:51:26.375Z,2.00
2022-09-28T18:53:55.818Z,3.33
2022-09-28T18:56:24.697Z,3.60
2022-09-28T18:58:52.666Z,3.13
2022-09-28T19:01:30.736Z,2.90
2022-09-28T19:04:00.486Z,2.57
2022-09-28T19:06:29.091Z,2.17
2022-09-28T19:08:59.149Z,1.97
2022-09-28T19:11:28.475Z,2.10
2022-09-28T19:13:56.963Z,1.70
2022-09-28T19:16:26.723Z,1.50
2022-09-28T19:18:55.310Z,1.90
2022-09-28T19:21:23.676Z,1.50
2022-09-28T19:23:53.528Z,1.67
2022-09-28T19:26:25.395Z,1.63
2022-09-28T19:28:53.806Z,3.10
2022-09-28T19:31:22.165Z,2.33
2022-09-28T19:33:50.447Z,2.60
2022-09-28T19:36:21.135Z,2.30
2022-09-28T19:38:49.444Z,2.43
2022-09-28T19:41:43.136Z,2.07
2022-09-28T19:44:21.054Z,1.93
2022-09-28T19:46:49.270Z,2.57
2022-09-28T19:49:21.128Z,2.50
2022-09-28T19:52:15.640Z,2.23
2022-09-28T19:54:38.349Z,2.13
2022-09-28T19:57:07.833Z,1.90
2022-09-28T19:59:38.192Z,2.20
2022-09-28T20:02:07.814Z,1.93
2022-09-28T20:04:36.179Z,2.23
2022-09-28T20:07:04.362Z,2.20
2022-09-28T20:09:32.835Z,2.23
2022-09-28T20:12:00.980Z,2.10
2022-09-28T20:14:34.026Z,2.10
2022-09-28T20:17:05.684Z,2.20
2022-09-28T20:19:34.859Z,2.30
2022-09-28T20:22:03.433Z,1.97
2022-09-28T20:24:32.060Z,2.00
2022-09-28T20:27:01.263Z,3.50
2022-09-28T20:29:31.371Z,5.10
2022-09-28T20:32:00.269Z,6.53
2022-09-28T20:34:29.672Z,5.40
2022-09-28T20:36:58.180Z,4.50
2022-09-28T20:39:26.320Z,4.93
2022-09-28T20:41:56.193Z,4.07
2022-09-28T20:44:24.332Z,4.23
2022-09-28T20:46:52.484Z,3.00
2022-09-28T20:49:20.600Z,2.60
2022-09-28T20:51:49.948Z,2.50
2022-09-28T20:54:18.496Z,2.60
2022-09-28T20:56:48.094Z,2.20
2022-09-28T20:59:16.160Z,2.50
2022-09-28T21:01:44.708Z,2.60
2022-09-28T21:04:13.231Z,2.70
2022-09-28T21:06:43.163Z,3.40
2022-09-28T21:09:13.270Z,3.27
2022-09-28T21:11:41.778Z,3.47
2022-09-28T21:14:10.749Z,2.90
2022-09-28T21:16:39.288Z,3.27
2022-09-28T21:19:07.626Z,2.87
2022-09-28T21:21:36.062Z,2.60
2022-09-28T21:24:04.494Z,2.30
2022-09-28T21:26:35.143Z,2.63
2022-09-28T21:29:04.732Z,2.43
2022-09-28T21:31:38.948Z,2.43
2022-09-28T21:34:07.585Z,2.43
2022-09-28T21:36:35.792Z,2.90
2022-09-28T21:39:08.272Z,2.50
2022-09-28T21:41:39.404Z,2.43
2022-09-28T21:44:08.145Z,2.93
2022-09-28T21:46:36.510Z,2.43
2022-09-28T21:49:06.477Z,1.93
2022-09-28T21:51:35.422Z,2.60
2022-09-28T21:54:03.572Z,2.20
2022-09-28T21:56:31.850Z,2.10
2022-09-28T21:59:02.203Z,2.40
2022-09-28T22:01:31.559Z,2.73
2022-09-28T22:03:59.881Z,2.60
2022-09-28T22:06:28.988Z,2.43
2022-09-28T22:08:57.538Z,2.20
2022-09-28T22:11:26.853Z,2.57
2022-09-28T22:13:56.507Z,2.53
2022-09-28T22:16:27.506Z,2.83
2022-09-28T22:18:55.788Z,2.53
2022-09-28T22:21:25.883Z,3.10
2022-09-28T22:23:54.083Z,2.53
2022-09-28T22:26:23.757Z,2.60
2022-09-28T22:28:53.620Z,2.40
2022-09-28T22:31:23.299Z,2.73
2022-09-28T22:33:52.674Z,2.80
2022-09-28T22:36:20.978Z,4.03
2022-09-28T22:38:49.250Z,5.67
2022-09-28T22:41:20.991Z,5.30
2022-09-28T22:43:49.775Z,5.67
2022-09-28T22:46:19.052Z,5.40
2022-09-28T22:48:48.026Z,4.47
2022-09-28T22:51:17.813Z,4.67
2022-09-28T22:53:46.238Z,5.53
2022-09-28T22:56:18.805Z,4.90
2022-09-28T22:58:47.692Z,4.50
2022-09-28T23:01:17.795Z,3.60
2022-09-28T23:03:46.355Z,3.00
2022-09-28T23:06:17.711Z,3.10
2022-09-28T23:08:47.177Z,3.07
2022-09-28T23:11:15.858Z,3.10
2022-09-28T23:13:44.038Z,2.67
2022-09-28T23:16:14.685Z,3.20
2022-09-28T23:18:43.634Z,4.20
2022-09-28T23:21:15.255Z,4.40
2022-09-28T23:23:44.576Z,4.50
2022-09-28T23:26:13.981Z,3.33
2022-09-28T23:28:42.529Z,3.47
2022-09-28T23:31:12.346Z,4.50
2022-09-28T23:33:40.724Z,3.53
2022-09-28T23:36:09.542Z,4.07
2022-09-28T23:38:38.017Z,3.77
2022-09-28T23:41:07.520Z,3.93
2022-09-28T23:43:36.186Z,3.70
2022-09-28T23:46:04.657Z,3.93
2022-09-28T23:48:33.040Z,4.07
2022-09-28T23:51:01.602Z,3.60
2022-09-28T23:53:30.034Z,4.03
2022-09-28T23:55:58.204Z,4.07
2022-09-28T23:58:28.233Z,4.03
